createdAt,value
2022-09-23T16:49:19.773Z,3.03
2022-09-23T16:51:48.290Z,2.50
2022-09-23T16:54:17.462Z,2.80
2022-09-23T16:56:46.662Z,2.40
2022-09-23T16:59:17.506Z,2.40
2022-09-23T17:02:21.465Z,2.58
2022-09-23T17:04:52.123Z,2.60
2022-09-23T17:11:23.327Z,2.80
2022-09-23T17:13:52.878Z,2.63
2022-09-23T17:16:28.134Z,2.78
2022-09-23T17:18:57.680Z,2.97
2022-09-23T17:21:29.380Z,2.78
2022-09-23T17:23:59.178Z,2.70
2022-09-23T17:26:29.242Z,2.75
2022-09-23T17:28:59.654Z,3.00
2022-09-23T17:31:28.302Z,2.95
2022-09-23T17:33:57.437Z,3.13
2022-09-23T17:36:28.093Z,2.90
2022-09-23T17:38:57.554Z,2.88
2022-09-23T17:41:26.359Z,3.00
2022-09-23T17:43:58.699Z,3.30
2022-09-23T17:46:29.123Z,3.30
2022-09-23T17:48:58.408Z,3.30
2022-09-23T17:51:28.324Z,3.20
2022-09-23T17:53:57.145Z,3.42
2022-09-23T17:56:30.132Z,3.08
2022-09-23T17:59:02.516Z,2.80
2022-09-23T18:01:31.705Z,3.50
2022-09-23T18:04:05.616Z,4.25
2022-09-23T18:06:38.692Z,4.47
2022-09-23T18:09:10.094Z,4.10
2022-09-23T18:11:40.980Z,5.00
2022-09-23T18:14:16.709Z,4.70
2022-09-23T18:16:48.716Z,4.57
2022-09-23T18:19:19.832Z,4.78
2022-09-23T18:21:52.789Z,4.75
2022-09-23T18:24:31.792Z,3.08
2022-09-23T18:27:01.595Z,3.10
2022-09-23T18:29:30.440Z,4.07
2022-09-23T18:31:59.287Z,4.32
2022-09-23T18:34:28.936Z,3.22
2022-09-23T18:36:58.839Z,4.22
2022-09-23T18:39:27.547Z,3.10
2022-09-23T18:41:56.054Z,3.85
2022-09-23T18:44:24.902Z,4.30
2022-09-23T18:46:54.304Z,2.90
2022-09-23T18:49:40.314Z,3.20
2022-09-23T18:52:10.504Z,4.10
2022-09-23T18:54:39.012Z,5.47
2022-09-23T18:57:07.831Z,5.75
2022-09-23T18:59:36.687Z,4.43
2022-09-23T19:02:05.548Z,5.13
2022-09-23T19:04:34.102Z,4.27
2022-09-23T19:07:02.920Z,4.00
2022-09-23T19:09:33.111Z,4.05
2022-09-23T19:12:02.856Z,3.83
2022-09-23T19:14:31.479Z,3.42
2022-09-23T19:17:00.262Z,3.90
2022-09-23T19:19:29.174Z,3.72
2022-09-23T19:21:57.753Z,3.95
2022-09-23T19:24:26.384Z,4.38
2022-09-23T19:26:56.994Z,4.63
2022-09-23T19:29:25.563Z,4.70
2022-09-23T19:31:54.363Z,4.57
2022-09-23T19:34:26.292Z,4.50
2022-09-23T19:36:58.706Z,5.07
2022-09-23T19:39:32.007Z,4.75
2022-09-23T19:42:01.975Z,4.17
2022-09-23T19:44:30.834Z,4.90
2022-09-23T19:46:59.728Z,5.00
2022-09-23T19:49:28.704Z,4.40
2022-09-23T19:51:57.793Z,4.40
2022-09-23T19:54:27.770Z,4.30
2022-09-23T19:56:56.947Z,4.35
2022-09-23T19:59:28.281Z,4.32
2022-09-23T20:01:57.121Z,4.07
2022-09-23T20:04:26.258Z,4.18
2022-09-23T20:06:54.930Z,3.90
2022-09-23T20:09:23.835Z,3.70
2022-09-23T20:11:52.390Z,4.40
2022-09-23T20:14:22.318Z,4.10
2022-09-23T20:16:53.201Z,4.10
2022-09-23T20:19:22.142Z,3.37
2022-09-23T20:22:11.311Z,3.80
2022-09-23T20:24:40.283Z,3.95
2022-09-23T20:27:11.164Z,3.80
2022-09-23T20:29:40.320Z,3.80
2022-09-23T20:32:11.463Z,4.00
2022-09-23T20:34:44.410Z,4.07
2022-09-23T20:37:13.232Z,5.40
2022-09-23T20:39:42.017Z,4.72
2022-09-23T20:42:10.771Z,5.10
2022-09-23T20:44:39.522Z,5.60
2022-09-23T20:47:11.314Z,5.75
2022-09-23T20:49:42.669Z,5.82
2022-09-23T20:52:12.250Z,4.40
2022-09-23T20:54:42.411Z,6.20
2022-09-23T20:57:14.873Z,4.70
2022-09-23T20:59:43.757Z,5.30
2022-09-23T21:02:13.802Z,5.30
2022-09-23T21:04:42.364Z,6.10
2022-09-23T21:07:11.644Z,6.38
2022-09-23T21:09:40.229Z,5.70
2022-09-23T21:12:09.118Z,4.63
2022-09-23T21:14:37.713Z,5.32
2022-09-23T21:17:07.202Z,4.35
2022-09-23T21:19:38.304Z,4.50
2022-09-23T21:22:06.868Z,5.80
2022-09-23T21:27:24.385Z,5.28
2022-09-23T21:29:52.951Z,4.88
2022-09-23T21:32:21.724Z,5.10
2022-09-23T21:34:52.859Z,4.50
2022-09-23T21:37:21.754Z,4.97
2022-09-23T21:43:00.629Z,4.40
2022-09-23T21:45:29.317Z,5.30
2022-09-23T21:47:57.776Z,4.90
2022-09-23T21:50:30.260Z,4.30
2022-09-23T21:52:58.735Z,4.68
2022-09-23T21:55:27.796Z,4.85
2022-09-23T21:57:56.876Z,4.28
2022-09-23T22:00:26.466Z,4.87
2022-09-23T22:02:55.255Z,4.38
2022-09-23T22:05:23.905Z,4.65
2022-09-23T22:07:54.558Z,4.65
2022-09-23T22:10:23.025Z,4.65
2022-09-23T22:12:51.771Z,4.33
2022-09-23T22:15:20.716Z,4.78
2022-09-23T22:17:50.105Z,4.68
2022-09-23T22:20:18.544Z,4.70
2022-09-23T22:22:47.249Z,4.63
2022-09-23T22:25:17.571Z,5.10
2022-09-23T22:27:59.925Z,4.90
2022-09-23T22:30:46.253Z,5.38
2022-09-23T22:33:17.595Z,5.10
2022-09-23T22:35:46.739Z,5.80
2022-09-23T22:38:15.259Z,5.37
2022-09-23T22:40:45.915Z,6.28
2022-09-23T22:43:14.723Z,5.95
2022-09-23T22:45:51.572Z,5.55
2022-09-23T22:48:20.515Z,5.35
2022-09-23T22:50:49.233Z,5.63
2022-09-23T22:53:17.756Z,5.40
2022-09-23T22:55:59.501Z,5.10
2022-09-23T22:58:32.685Z,4.65
2022-09-23T23:01:02.853Z,4.93
2022-09-23T23:03:34.545Z,5.27
2022-09-23T23:06:05.197Z,5.35
2022-09-23T23:08:34.607Z,5.68
2022-09-23T23:11:10.332Z,5.88
2022-09-23T23:13:42.196Z,6.22
2022-09-23T23:16:13.235Z,8.33
2022-09-23T23:18:45.766Z,10.73
2022-09-23T23:21:17.488Z,14.40
2022-09-23T23:23:48.693Z,11.45
2022-09-23T23:26:21.818Z,9.30
2022-09-23T23:28:53.668Z,8.90
2022-09-23T23:31:25.190Z,7.50
2022-09-23T23:33:54.697Z,7.57
2022-09-23T23:36:24.803Z,7.13
2022-09-23T23:38:53.384Z,6.88
2022-09-23T23:41:24.849Z,6.40
2022-09-23T23:43:57.965Z,6.22
2022-09-23T23:46:29.233Z,6.18
2022-09-23T23:48:59.363Z,6.00
2022-09-23T23:51:30.044Z,5.93
2022-09-23T23:54:01.423Z,6.43
2022-09-23T23:56:32.681Z,6.53
2022-09-23T23:59:04.300Z,6.38
